Melbourne, FL

10:50 AM EDT on April 21, 2015 (GMT -0400)
Vero Beach Municipal | | Change Station
CLOSE
Current Station
Airport
Location: Vero Beach,
Elevation: 23 ft
Nearby Weather Stations

Elev 23 ft 27.66 °N, 80.42 °W | Updated 57 minutes ago

Mostly Cloudy
Mostly Cloudy
76 °F
Feels Like 76 °F
N
5
Wind Variable Wind from West

Today
High -- | Low -- °F
--% Chance of Precip.
Yesterday
High -- | Low -- °F
Precip. -- in
6:51 AM 7:51 PM
Waxing Crescent, 11% visible
Pressure 29.99 in
Visibility 10.0 miles
Clouds Few 3600 ft
Dew Point 71 °F
Humidity 85%
Rainfall 0.00 in
Snow Depth Not available.
UV 6 out of 12
Pollen 8.50 out of 12
Air Quality Not available.
Flu Activity Local Activity
METAR KVRB 211353Z 26004KT 10SM FEW036 24/22 A2999 RMK AO2 SLP154 T02440217

More Conditions Fewer Conditions

Pressure 29.99 in
Visibility 10.0 miles
Clouds Few 3600 ft
Dew Point 71 °F
Humidity 85%
Rainfall 0.00 in
Snow Depth Not available.
UV 6 out of 12
Pollen 8.50 out of 12
Air Quality Not available.
Flu Activity Local Activity
METAR KVRB 211353Z 26004KT 10SM FEW036 24/22 A2999 RMK AO2 SLP154 T02440217

More Conditions Fewer Conditions

Nowcast | as of 9:41 am EDT on April 21, 2015

A dissipating stationary front over South Florida will provide the focus for a few light showers to develop around Lake Okeechobee through midday. Rainfall amounts will be less than a tenth of an inch. Elsewhere...skies will be cloudy over most of east central Florida as a dry cold front pushes into the area. Light west to southwest winds will prevail with temperatures warming into the low to mid 80s. Additional details...including graphics are available online at: http://www.Srh.NOAA.Gov/mlb/blog.Php

×

10-Day Weather Forecast

Almanac

Astronomy

Apr. 21, 2015 Rise Set
Actual Time
Civil Twilight
Nautical Twilight
Astronomical Twilight
Moon
Length of Visible Light
Length of Day
Tomorrow will be .
, % of the Moon is Illuminated

Today's Extremes

State Highs State Lows

Community

WunderPhotos

Upload Photos

1,815,413 photos uploaded!

WunderBlogs® & News

Nearby

Air Quality

  Air Quality AQ Index Pollutant
Not available.

Snow Depth

Station Depth Elevation

Earthquake Activity

City Distance Mag. Time & Date
Minimum magnitude displayed is 2.5.

Coastal Water Temperatures

Place Temperature

Stations

Nearby Weather Stations

Station Location Temp. Windchill Dew Point Humidity Wind Precip. Elev Updated Type